Time;durP1;ratioP1;P1;durP2;ratioP2;P2;SDS_P1;SDS_P2;PMS_P1;PMS_P2;Temp;Humidity;BMP_temperature;BMP_pressure;BME280_temperature;BME280_humidity;BME280_pressure;Samples;Min_cycle;Max_cycle;Signal;HPM_P1;HPM_P2
2022/02/28 00:01:06;;;;;;;10.10;7.77;;;;;;;-1.78;68.43;96766.00;4960026;29;20179;-79
2022/02/28 00:03:32;;;;;;;12.70;7.40;;;;;;;-1.82;68.25;96767.81;4952894;28;20266;-79
2022/02/28 00:05:57;;;;;;;11.23;7.57;;;;;;;-1.85;68.95;96773.00;4956413;29;20586;-80
2022/02/28 00:08:22;;;;;;;14.80;7.83;;;;;;;-1.88;68.99;96772.25;4922900;29;20187;-79
2022/02/28 00:10:48;;;;;;;12.17;7.57;;;;;;;-1.89;69.17;96766.31;4939901;29;20195;-79
2022/02/28 00:13:13;;;;;;;10.57;7.47;;;;;;;-1.91;69.10;96770.63;4923804;29;20242;-78
2022/02/28 00:15:39;;;;;;;8.30;6.97;;;;;;;-2.00;69.12;96761.53;4939955;29;20218;-79
2022/02/28 00:18:04;;;;;;;9.20;6.83;;;;;;;-2.02;69.25;96763.28;4939748;29;20710;-79
2022/02/28 00:20:30;;;;;;;10.80;6.83;;;;;;;-1.95;69.42;96768.19;4940423;29;20179;-79
2022/02/28 00:22:55;;;;;;;11.83;7.70;;;;;;;-1.94;69.27;96767.31;4939169;29;20211;-79
2022/02/28 00:25:20;;;;;;;12.73;7.80;;;;;;;-1.90;69.36;96761.28;4940326;29;20195;-79
2022/02/28 00:27:46;;;;;;;9.63;6.87;;;;;;;-2.02;69.68;96750.56;4939495;29;20202;-77
2022/02/28 00:30:12;;;;;;;8.93;6.47;;;;;;;-1.94;69.65;96754.59;4939183;29;20663;-78
2022/02/28 00:32:38;;;;;;;11.07;7.20;;;;;;;-1.95;69.38;96758.00;4938481;29;20221;-78
2022/02/28 00:35:06;;;;;;;10.87;7.20;;;;;;;-1.98;69.37;96746.22;4939565;29;20194;-78
2022/02/28 00:37:31;;;;;;;11.30;7.33;;;;;;;-2.03;69.71;96748.06;4939238;29;20217;-78
2022/02/28 00:39:57;;;;;;;11.23;7.43;;;;;;;-2.07;70.01;96741.38;4940491;29;20180;-78
2022/02/28 00:42:22;;;;;;;10.23;7.47;;;;;;;-2.12;70.11;96748.28;4938656;29;20285;-79
2022/02/28 00:44:48;;;;;;;11.20;8.20;;;;;;;-2.14;70.45;96745.78;4938627;29;20270;-79
2022/02/28 00:47:13;;;;;;;9.37;7.03;;;;;;;-2.23;70.35;96746.03;4939770;29;20637;-79
2022/02/28 00:49:38;;;;;;;10.40;7.17;;;;;;;-2.26;71.08;96753.75;4939419;29;20181;-79
2022/02/28 00:52:04;;;;;;;11.67;7.87;;;;;;;-2.19;70.59;96754.44;4937546;29;20197;-78
2022/02/28 00:54:30;;;;;;;9.80;7.13;;;;;;;-2.14;70.72;96750.03;4938539;29;20266;-79
2022/02/28 00:56:56;;;;;;;11.57;7.93;;;;;;;-2.14;70.73;96750.88;4938218;29;20214;-78
2022/02/28 00:59:21;;;;;;;8.73;7.23;;;;;;;-2.11;70.67;96745.72;4938663;29;20246;-77
2022/02/28 01:01:47;;;;;;;13.97;8.33;;;;;;;-2.25;70.27;96745.25;4937592;29;20244;-78
2022/02/28 01:04:12;;;;;;;11.37;7.37;;;;;;;-2.12;70.51;96740.66;4938151;29;20273;-80
2022/02/28 01:06:37;;;;;;;13.43;7.33;;;;;;;-2.11;70.01;96738.09;4938093;29;20182;-80
2022/02/28 01:09:03;;;;;;;14.23;7.83;;;;;;;-2.03;70.04;96742.97;4936936;29;20309;-79
2022/02/28 01:11:29;;;;;;;12.53;7.87;;;;;;;-2.11;70.24;96743.19;4937302;29;20178;-79
2022/02/28 01:13:54;;;;;;;11.33;7.90;;;;;;;-2.05;70.31;96739.63;4937345;29;20186;-79
2022/02/28 01:16:19;;;;;;;11.87;7.40;;;;;;;-2.11;69.96;96742.34;4937947;29;20202;-79
2022/02/28 01:18:44;;;;;;;11.87;7.80;;;;;;;-2.18;69.94;96738.28;4951830;29;20272;-79
2022/02/28 01:21:10;;;;;;;11.77;8.17;;;;;;;-2.14;70.53;96745.78;4932722;29;20262;-79
2022/02/28 01:23:35;;;;;;;11.83;7.23;;;;;;;-2.23;70.30;96748.59;4937055;29;20225;-79
2022/02/28 01:26:01;;;;;;;11.20;7.97;;;;;;;-2.29;70.90;96741.13;4937164;29;20205;-78
2022/02/28 01:28:26;;;;;;;11.50;7.63;;;;;;;-2.30;70.75;96742.84;4936555;29;20523;-78
2022/02/28 01:30:52;;;;;;;10.67;7.47;;;;;;;-2.38;71.35;96739.66;4936277;29;20598;-79
2022/02/28 01:33:17;;;;;;;11.33;7.53;;;;;;;-2.42;71.27;96734.69;4936596;29;20202;-79
2022/02/28 01:35:43;;;;;;;10.23;7.57;;;;;;;-2.52;71.62;96740.88;4938189;29;20203;-80
2022/02/28 01:38:08;;;;;;;12.30;7.60;;;;;;;-2.50;71.93;96736.59;4936886;29;20242;-79
2022/02/28 01:40:34;;;;;;;11.47;8.50;;;;;;;-2.47;71.75;96737.38;4948568;29;20175;-79
2022/02/28 01:43:00;;;;;;;11.17;8.13;;;;;;;-2.43;71.94;96731.31;4942226;29;20209;-78
2022/02/28 01:45:25;;;;;;;12.40;8.20;;;;;;;-2.42;71.56;96734.69;4937118;29;20183;-81
2022/02/28 01:47:52;;;;;;;11.73;7.47;;;;;;;-2.44;71.77;96733.91;4937105;29;20190;-80
2022/02/28 01:50:17;;;;;;;12.13;7.93;;;;;;;-2.51;71.89;96737.47;4936858;29;20546;-80
2022/02/28 01:52:45;;;;;;;13.30;8.17;;;;;;;-2.60;72.66;96726.66;4935707;29;20211;-78
2022/02/28 01:55:10;;;;;;;13.50;7.70;;;;;;;-2.61;72.29;96732.63;4938333;29;20178;-79
2022/02/28 01:57:36;;;;;;;12.00;7.93;;;;;;;-2.61;72.15;96730.06;4952587;29;20214;-79
2022/02/28 02:00:04;;;;;;;11.43;7.70;;;;;;;-2.62;72.10;96723.31;4952951;29;20217;-79
2022/02/28 02:02:29;;;;;;;9.93;8.13;;;;;;;-2.61;72.24;96727.53;4920042;29;20209;-80
2022/02/28 02:04:54;;;;;;;11.07;7.13;;;;;;;-2.74;72.50;96723.66;4937609;29;20255;-78
2022/02/28 02:07:19;;;;;;;13.60;8.47;;;;;;;-2.78;73.31;96723.75;4952880;29;20174;-79
2022/02/28 02:09:45;;;;;;;11.73;8.33;;;;;;;-2.87;73.29;96728.19;4936402;29;20178;-79
2022/02/28 02:12:10;;;;;;;10.63;7.60;;;;;;;-2.91;73.32;96730.84;4952276;29;20218;-78
2022/02/28 02:14:36;;;;;;;11.93;7.37;;;;;;;-2.94;73.21;96736.81;4942088;29;20662;-79
2022/02/28 02:17:02;;;;;;;11.17;7.33;;;;;;;-2.93;73.54;96733.41;4921275;29;20213;-79
2022/02/28 02:19:27;;;;;;;11.07;7.83;;;;;;;-2.95;73.35;96731.78;4936431;29;20213;-79
2022/02/28 02:21:53;;;;;;;10.50;7.93;;;;;;;-3.00;74.01;96741.25;4935800;29;20237;-79
2022/02/28 02:24:18;;;;;;;11.93;7.40;;;;;;;-3.04;74.04;96732.84;4936352;29;20190;-79
2022/02/28 02:26:44;;;;;;;11.60;7.67;;;;;;;-3.07;74.20;96729.53;4936249;29;20185;-79
2022/02/28 02:29:09;;;;;;;13.30;8.40;;;;;;;-3.05;74.50;96736.25;4936242;29;20634;-80
2022/02/28 02:31:34;;;;;;;14.63;8.13;;;;;;;-3.09;74.35;96728.72;4936415;29;20179;-79
2022/02/28 02:33:59;;;;;;;12.83;8.47;;;;;;;-3.07;74.31;96724.47;4936492;28;20193;-78
2022/02/28 02:36:25;;;;;;;9.70;7.17;;;;;;;-3.05;74.47;96725.25;4936356;29;20234;-78
2022/02/28 02:38:53;;;;;;;14.30;8.90;;;;;;;-3.05;74.19;96722.72;4934939;29;20697;-78
2022/02/28 02:41:19;;;;;;;12.93;7.90;;;;;;;-3.03;73.93;96723.50;4933709;29;20178;-77
2022/02/28 02:43:45;;;;;;;9.23;7.60;;;;;;;-2.98;74.19;96720.00;4918544;29;20197;-78
2022/02/28 02:46:10;;;;;;;14.47;8.93;;;;;;;-2.91;73.79;96720.69;4934382;29;20264;-77
2022/02/28 02:48:35;;;;;;;11.77;8.27;;;;;;;-2.93;73.75;96714.78;4934247;29;20209;-77
2022/02/28 02:51:01;;;;;;;14.10;9.17;;;;;;;-2.85;73.14;96720.50;4935452;29;20229;-80
2022/02/28 02:53:26;;;;;;;13.43;8.33;;;;;;;-2.74;73.25;96722.78;4934240;29;20289;-79
2022/02/28 02:55:51;;;;;;;12.67;8.43;;;;;;;-2.79;73.27;96722.06;4935170;29;20211;-79
2022/02/28 02:58:17;;;;;;;11.67;7.93;;;;;;;-2.74;72.86;96717.69;4919449;29;20232;-79
2022/02/28 03:00:48;;;;;;;13.43;8.77;;;;;;;-2.72;72.91;96719.34;4936002;29;20182;-79
2022/02/28 03:03:16;;;;;;;11.80;7.93;;;;;;;-2.75;72.84;96723.66;4934175;29;20257;-79
2022/02/28 03:05:41;;;;;;;10.13;7.47;;;;;;;-2.77;72.59;96718.63;4918054;29;20178;-78
2022/02/28 03:08:06;;;;;;;13.20;8.10;;;;;;;-2.83;73.19;96718.75;4932251;29;20273;-77
2022/02/28 03:10:32;;;;;;;11.97;8.10;;;;;;;-2.92;73.14;96717.28;4933615;29;20187;-77
2022/02/28 03:12:57;;;;;;;12.37;8.40;;;;;;;-2.98;73.66;96721.69;4933135;29;20281;-78
2022/02/28 03:15:23;;;;;;;10.53;7.37;;;;;;;-3.02;74.09;96735.34;4949479;29;20193;-77
2022/02/28 03:17:48;;;;;;;12.47;8.47;;;;;;;-3.07;74.05;96729.53;4939685;29;20182;-77
2022/02/28 03:20:13;;;;;;;15.47;9.10;;;;;;;-3.14;74.08;96724.59;4933695;29;20782;-77
2022/02/28 03:22:39;;;;;;;13.90;8.40;;;;;;;-3.15;74.20;96722.09;4933283;29;20198;-78
2022/02/28 03:25:05;;;;;;;11.33;8.33;;;;;;;-3.21;74.46;96712.91;4933781;29;20207;-79
2022/02/28 03:27:31;;;;;;;11.80;8.23;;;;;;;-3.25;74.67;96726.56;4934936;29;20209;-78
2022/02/28 03:29:56;;;;;;;14.13;8.37;;;;;;;-3.26;74.80;96722.34;4934349;29;20178;-78
2022/02/28 03:32:22;;;;;;;13.33;8.60;;;;;;;-3.24;74.72;96720.59;4933953;29;20225;-78
2022/02/28 03:34:47;;;;;;;15.43;9.20;;;;;;;-3.24;74.72;96725.69;4934562;29;20194;-78
2022/02/28 03:37:12;;;;;;;13.37;7.80;;;;;;;-3.31;74.81;96725.84;4933903;29;20226;-77
2022/02/28 03:39:38;;;;;;;13.60;8.63;;;;;;;-3.31;75.52;96729.22;4933112;29;20189;-78
2022/02/28 03:42:03;;;;;;;14.40;8.80;;;;;;;-3.31;75.73;96731.78;4932388;29;20210;-77
2022/02/28 03:44:28;;;;;;;15.97;9.50;;;;;;;-3.32;75.70;96727.56;4933161;29;20669;-78
2022/02/28 03:46:54;;;;;;;15.03;8.77;;;;;;;-3.38;75.75;96731.94;4934716;29;20249;-77
2022/02/28 03:49:19;;;;;;;12.53;8.30;;;;;;;-3.38;75.56;96720.06;4932856;29;20190;-77
2022/02/28 03:51:45;;;;;;;13.13;8.37;;;;;;;-3.34;75.52;96724.22;4932746;29;20506;-78
2022/02/28 03:54:11;;;;;;;14.43;8.70;;;;;;;-3.29;75.51;96724.94;4935055;29;20185;-78
2022/02/28 03:56:38;;;;;;;13.23;8.47;;;;;;;-3.22;75.50;96710.41;4936217;29;20446;-77
2022/02/28 03:59:03;;;;;;;15.33;8.37;;;;;;;-3.20;75.28;96713.75;4936069;29;20635;-77
2022/02/28 04:01:29;;;;;;;15.10;9.07;;;;;;;-3.08;74.64;96710.09;4935681;29;20189;-77
2022/02/28 04:03:54;;;;;;;11.17;8.43;;;;;;;-3.08;74.53;96710.09;4920683;29;20611;-77
2022/02/28 04:06:19;;;;;;;12.07;8.23;;;;;;;-3.08;74.75;96712.63;4936348;29;20237;-77
2022/02/28 04:08:45;;;;;;;11.23;8.33;;;;;;;-3.15;75.15;96710.22;4935477;29;20186;-79
2022/02/28 04:11:10;;;;;;;13.10;8.87;;;;;;;-3.07;74.45;96704.97;4935933;29;20225;-77
2022/02/28 04:13:35;;;;;;;13.30;9.80;;;;;;;-3.10;75.10;96701.66;4936703;29;20209;-79
2022/02/28 04:16:01;;;;;;;13.20;9.17;;;;;;;-3.15;74.52;96707.69;4936879;29;20214;-76
2022/02/28 04:18:26;;;;;;;15.87;9.13;;;;;;;-3.15;74.89;96702.59;4936866;29;20558;-79
2022/02/28 04:20:51;;;;;;;15.17;8.83;;;;;;;-3.17;74.99;96711.16;4936936;29;20182;-78
2022/02/28 04:23:17;;;;;;;12.53;9.03;;;;;;;-3.25;75.39;96713.88;4936562;29;20237;-78
2022/02/28 04:25:44;;;;;;;16.17;9.60;;;;;;;-3.26;75.08;96717.28;4936556;29;20212;-79
2022/02/28 04:28:09;;;;;;;14.30;9.47;;;;;;;-3.29;75.37;96712.25;4937207;29;20185;-78
2022/02/28 04:30:34;;;;;;;16.43;9.10;;;;;;;-3.31;75.78;96719.06;4937756;29;20178;-79
2022/02/28 04:32:59;;;;;;;12.97;8.90;;;;;;;-3.35;75.50;96717.50;4936472;29;20198;-79
2022/02/28 04:35:25;;;;;;;16.30;9.23;;;;;;;-3.37;76.44;96716.66;4936711;29;20188;-79
2022/02/28 04:37:50;;;;;;;15.33;9.70;;;;;;;-3.33;75.88;96713.19;4936492;29;20566;-78
2022/02/28 04:40:15;;;;;;;14.80;9.17;;;;;;;-3.38;76.38;96716.69;4938015;29;20183;-78
2022/02/28 04:42:41;;;;;;;15.03;9.63;;;;;;;-3.40;75.98;96706.59;4935889;29;20223;-78
2022/02/28 04:45:07;;;;;;;15.37;9.73;;;;;;;-3.34;76.22;96711.53;4937511;29;20577;-78
2022/02/28 04:47:32;;;;;;;13.87;9.03;;;;;;;-3.33;75.92;96710.66;4936392;29;20186;-78
2022/02/28 04:49:58;;;;;;;12.97;8.90;;;;;;;-3.31;75.71;96711.44;4936562;29;20193;-79
2022/02/28 04:52:23;;;;;;;12.73;9.37;;;;;;;-3.16;75.76;96710.28;4937277;29;20212;-79
2022/02/28 04:54:48;;;;;;;14.17;9.30;;;;;;;-3.15;75.42;96720.41;4936523;29;20186;-79
2022/02/28 04:57:14;;;;;;;13.53;9.67;;;;;;;-3.17;75.66;96718.78;4948046;29;20372;-77
2022/02/28 04:59:39;;;;;;;15.13;9.97;;;;;;;-3.21;75.98;96718.00;4941509;29;20575;-78
2022/02/28 05:02:05;;;;;;;15.90;10.60;;;;;;;-3.28;76.17;96710.53;4935212;29;20572;-79
2022/02/28 05:04:30;;;;;;;17.17;10.43;;;;;;;-3.22;75.88;96718.84;4935032;29;20174;-79
2022/02/28 05:06:56;;;;;;;14.93;9.47;;;;;;;-3.20;75.70;96713.75;4935450;29;20232;-79
2022/02/28 05:09:21;;;;;;;13.80;9.73;;;;;;;-3.08;75.81;96718.53;4935594;29;20241;-78
2022/02/28 05:11:46;;;;;;;16.07;9.83;;;;;;;-3.04;75.25;96712.50;4935579;29;20576;-79
2022/02/28 05:14:13;;;;;;;19.33;10.73;;;;;;;-3.10;75.15;96717.72;4936057;29;20225;-78
2022/02/28 05:16:39;;;;;;;15.27;10.17;;;;;;;-3.05;75.19;96720.16;4917787;29;20292;-79
2022/02/28 05:19:04;;;;;;;16.33;10.60;;;;;;;-3.05;75.29;96723.53;4936369;29;20214;-80
2022/02/28 05:21:30;;;;;;;16.30;9.60;;;;;;;-3.00;75.14;96721.75;4935310;29;20186;-79
2022/02/28 05:23:55;;;;;;;14.93;10.57;;;;;;;-3.00;75.23;96729.38;4935901;29;20194;-79
2022/02/28 05:26:20;;;;;;;16.80;10.23;;;;;;;-3.05;74.75;96721.00;4936059;29;20186;-78
2022/02/28 05:28:46;;;;;;;18.13;11.67;;;;;;;-3.01;74.72;96719.22;4936125;29;20633;-77
2022/02/28 05:31:11;;;;;;;14.17;10.63;;;;;;;-3.03;75.60;96726.03;4918961;29;20229;-79
2022/02/28 05:33:36;;;;;;;19.03;11.27;;;;;;;-3.05;75.44;96722.72;4921241;29;20210;-79
2022/02/28 05:36:05;;;;;;;15.53;10.13;;;;;;;-3.08;75.07;96722.78;4928880;29;20241;-77
2022/02/28 05:38:30;;;;;;;18.20;11.00;;;;;;;-3.09;75.04;96719.41;4917407;29;20181;-78
2022/02/28 05:40:56;;;;;;;15.27;9.90;;;;;;;-3.05;75.61;96721.00;4918391;29;20193;-77
2022/02/28 05:43:22;;;;;;;16.30;10.30;;;;;;;-3.02;75.33;96717.53;4948105;29;20224;-78
2022/02/28 05:45:47;;;;;;;17.43;10.57;;;;;;;-3.07;74.75;96727.84;4922706;28;20304;-77
2022/02/28 05:48:12;;;;;;;18.30;10.50;;;;;;;-3.15;75.46;96728.00;4924887;29;20190;-78
2022/02/28 05:50:37;;;;;;;18.83;10.37;;;;;;;-3.11;75.36;96723.69;4919911;29;20193;-79
2022/02/28 05:53:03;;;;;;;23.27;11.17;;;;;;;-3.04;75.56;96732.00;4901101;29;20594;-78
2022/02/28 05:55:29;;;;;;;14.20;10.83;;;;;;;-3.01;75.21;96724.28;4921596;29;20229;-78
2022/02/28 05:57:54;;;;;;;16.73;10.90;;;;;;;-2.94;75.02;96726.66;4910350;29;20263;-78
2022/02/28 06:00:20;;;;;;;17.80;10.57;;;;;;;-2.90;74.84;96728.25;4916889;29;20244;-77
2022/02/28 06:02:45;;;;;;;17.57;11.27;;;;;;;-2.93;74.51;96730.88;4914234;29;20694;-77
2022/02/28 06:05:10;;;;;;;17.17;10.43;;;;;;;-2.86;74.29;96734.94;4930911;29;20213;-78
2022/02/28 06:07:36;;;;;;;15.13;10.77;;;;;;;-2.91;74.10;96735.94;4934386;29;20197;-78
2022/02/28 06:10:02;;;;;;;18.17;10.73;;;;;;;-2.87;74.25;96734.97;4913253;29;20197;-77
2022/02/28 06:12:27;;;;;;;17.67;10.40;;;;;;;-2.91;74.11;96741.84;4938688;29;20288;-78
2022/02/28 06:14:52;;;;;;;16.57;10.90;;;;;;;-2.92;74.25;96741.88;4931200;29;20199;-78
2022/02/28 06:17:18;;;;;;;15.80;10.10;;;;;;;-2.88;74.01;96743.47;4946456;28;20674;-78
2022/02/28 06:19:43;;;;;;;14.20;9.97;;;;;;;-2.92;74.17;96741.88;4919807;29;20194;-78
2022/02/28 06:22:08;;;;;;;18.83;11.03;;;;;;;-2.97;74.16;96739.44;4935299;29;20269;-79
2022/02/28 06:24:34;;;;;;;17.33;10.27;;;;;;;-2.93;74.03;96738.50;4907087;29;20622;-78
2022/02/28 06:26:59;;;;;;;16.50;9.67;;;;;;;-2.86;74.05;96736.63;4936741;29;20186;-78
2022/02/28 06:29:24;;;;;;;13.90;10.00;;;;;;;-2.79;73.45;96738.16;4935006;29;20247;-78
2022/02/28 06:31:50;;;;;;;13.53;9.13;;;;;;;-2.79;73.40;96738.16;4936337;29;20209;-78
2022/02/28 06:34:15;;;;;;;13.93;9.80;;;;;;;-2.74;73.23;96732.94;4936758;29;20241;-78
2022/02/28 06:36:41;;;;;;;18.70;9.93;;;;;;;-2.73;73.23;96739.72;4919593;29;20281;-78
2022/02/28 06:39:06;;;;;;;17.37;9.80;;;;;;;-2.71;72.93;96743.91;4934730;29;20177;-77
2022/02/28 06:41:32;;;;;;;17.30;9.80;;;;;;;-2.66;73.01;96742.06;4932414;29;20209;-77
2022/02/28 06:43:57;;;;;;;14.97;9.53;;;;;;;-2.65;72.89;96736.13;4934828;29;20230;-78
2022/02/28 06:46:23;;;;;;;16.33;9.93;;;;;;;-2.57;72.54;96741.81;4933402;29;20216;-78
2022/02/28 06:48:49;;;;;;;15.63;10.67;;;;;;;-2.59;72.84;96747.84;4934097;29;20233;-78
2022/02/28 06:51:14;;;;;;;13.03;9.80;;;;;;;-2.56;72.52;96750.31;4918753;29;20647;-79
2022/02/28 06:53:40;;;;;;;15.97;10.10;;;;;;;-2.54;72.42;96752.81;4915641;29;20293;-77
2022/02/28 06:56:05;;;;;;;17.10;9.73;;;;;;;-2.54;72.28;96748.56;4926795;29;20316;-77
2022/02/28 06:58:30;;;;;;;19.00;10.37;;;;;;;-2.48;71.82;96750.09;4915904;29;20186;-77
2022/02/28 07:00:56;;;;;;;16.57;9.20;;;;;;;-2.37;71.97;96758.31;4934204;29;20529;-78
2022/02/28 07:03:24;;;;;;;18.37;10.10;;;;;;;-2.30;70.81;96755.56;4942711;29;20210;-78
2022/02/28 07:05:54;;;;;;;16.07;9.40;;;;;;;-2.33;71.18;96748.00;4928729;29;20595;-78
2022/02/28 07:08:20;;;;;;;15.13;9.77;;;;;;;-2.26;70.76;96755.47;4916476;29;20214;-77
2022/02/28 07:10:46;;;;;;;14.37;9.20;;;;;;;-2.19;71.09;96751.91;4938978;29;20568;-78
2022/02/28 07:13:12;;;;;;;16.80;9.83;;;;;;;-2.12;70.10;96749.16;4926441;29;20249;-78
2022/02/28 07:15:42;;;;;;;16.30;9.10;;;;;;;-2.12;70.55;96749.16;4947429;29;20182;-78
2022/02/28 07:18:07;;;;;;;14.30;9.13;;;;;;;-1.94;69.85;96757.13;4936706;29;20182;-77
2022/02/28 07:20:33;;;;;;;14.97;8.23;;;;;;;-1.97;70.04;96755.50;4919864;29;20186;-78
2022/02/28 07:22:58;;;;;;;13.33;8.33;;;;;;;-1.86;69.28;96755.22;4932209;29;20289;-78
2022/02/28 07:25:24;;;;;;;13.63;8.77;;;;;;;-1.86;69.04;96758.59;4917008;29;20653;-78
2022/02/28 07:27:49;;;;;;;13.70;9.27;;;;;;;-1.67;69.07;96751.28;4934982;29;20642;-78
2022/02/28 07:30:14;;;;;;;12.67;8.43;;;;;;;-1.62;68.17;96749.44;4939267;29;20186;-78
2022/02/28 07:32:40;;;;;;;14.13;7.93;;;;;;;-1.60;68.66;96750.22;4922554;29;20242;-77
2022/02/28 07:35:06;;;;;;;15.50;9.10;;;;;;;-1.48;67.75;96754.13;4949887;29;20183;-78
2022/02/28 07:37:33;;;;;;;12.40;8.63;;;;;;;-1.48;67.93;96756.69;4933099;29;20686;-78
2022/02/28 07:39:58;;;;;;;14.63;9.00;;;;;;;-1.38;67.87;96762.34;4938372;29;20175;-77
2022/02/28 07:42:23;;;;;;;13.87;8.80;;;;;;;-1.29;67.11;96762.88;4937082;29;20744;-78
2022/02/28 07:44:49;;;;;;;14.43;8.43;;;;;;;-1.20;66.45;96769.41;4938593;29;20186;-77
2022/02/28 07:47:14;;;;;;;13.70;9.10;;;;;;;-1.14;66.12;96766.69;4937173;29;20190;-78
2022/02/28 07:49:39;;;;;;;13.63;8.80;;;;;;;-1.01;66.36;96778.16;4936853;29;20234;-77
2022/02/28 07:52:05;;;;;;;11.60;8.47;;;;;;;-0.91;65.55;96774.44;4937197;29;20741;-78
2022/02/28 07:54:31;;;;;;;11.17;7.63;;;;;;;-0.86;65.90;96775.16;4920579;29;20183;-77
2022/02/28 07:56:56;;;;;;;12.93;8.80;;;;;;;-0.81;65.32;96780.09;4936695;29;20693;-77
2022/02/28 07:59:22;;;;;;;14.37;8.87;;;;;;;-0.72;65.54;96791.72;4936572;29;20550;-78
2022/02/28 08:01:47;;;;;;;12.80;8.80;;;;;;;-0.66;64.90;96791.53;4936275;29;20280;-77
2022/02/28 08:04:12;;;;;;;12.40;8.07;;;;;;;-0.66;65.16;96784.72;4937396;29;20328;-78
2022/02/28 08:06:38;;;;;;;13.47;8.03;;;;;;;-0.47;64.87;96784.94;4938031;29;20179;-77
2022/02/28 08:09:03;;;;;;;13.47;8.90;;;;;;;-0.48;64.98;96779.88;4938404;29;20666;-78
2022/02/28 08:11:29;;;;;;;13.10;8.20;;;;;;;-0.40;64.18;96786.41;4937162;29;20566;-77
2022/02/28 08:13:54;;;;;;;14.03;8.43;;;;;;;-0.32;64.68;96784.44;4921192;29;20786;-77
2022/02/28 08:16:19;;;;;;;14.50;8.93;;;;;;;-0.32;64.11;96786.16;4921613;29;20213;-77
2022/02/28 08:18:45;;;;;;;13.67;9.10;;;;;;;-0.16;63.73;96784.75;4921690;29;20192;-77
2022/02/28 08:21:10;;;;;;;14.07;8.80;;;;;;;-0.08;62.79;96784.50;4939675;29;20183;-79
2022/02/28 08:23:35;;;;;;;12.93;8.07;;;;;;;-0.02;63.05;96791.94;4922509;29;20271;-79
2022/02/28 08:26:01;;;;;;;13.70;8.77;;;;;;;0.12;62.59;96792.28;4918735;29;20284;-78
2022/02/28 08:28:26;;;;;;;10.90;8.03;;;;;;;0.16;61.99;96803.22;4936204;29;20187;-78
2022/02/28 08:30:51;;;;;;;13.10;8.77;;;;;;;0.17;62.74;96807.44;4936419;29;20214;-78
2022/02/28 08:33:17;;;;;;;14.27;9.03;;;;;;;0.25;62.50;96806.28;4936557;29;20232;-78
2022/02/28 08:35:42;;;;;;;11.30;8.77;;;;;;;0.32;62.97;96803.53;4921105;29;20185;-78
2022/02/28 08:38:08;;;;;;;12.73;8.87;;;;;;;0.40;62.85;96807.47;4922386;29;20188;-78
2022/02/28 08:40:33;;;;;;;12.27;9.07;;;;;;;0.44;62.50;96810.75;4940322;29;20664;-78
2022/02/28 08:42:58;;;;;;;15.33;9.33;;;;;;;0.61;61.77;96815.25;4936489;29;20262;-77
2022/02/28 08:45:24;;;;;;;10.73;8.17;;;;;;;0.63;61.63;96818.59;4937771;29;20196;-78
2022/02/28 08:47:49;;;;;;;15.30;8.93;;;;;;;0.71;60.92;96812.31;4937256;29;20213;-78
2022/02/28 08:50:16;;;;;;;13.60;8.73;;;;;;;0.71;60.58;96820.00;4937800;29;20200;-77
2022/02/28 08:52:43;;;;;;;12.80;8.67;;;;;;;0.68;59.88;96814.97;4921756;29;20254;-78
2022/02/28 08:55:08;;;;;;;16.20;8.63;;;;;;;0.74;59.71;96813.91;4938003;29;20276;-79
2022/02/28 08:57:34;;;;;;;13.00;9.47;;;;;;;0.75;60.65;96820.69;4953977;29;20795;-78
2022/02/28 08:59:59;;;;;;;13.40;8.80;;;;;;;0.79;59.72;96825.63;4921325;29;20189;-78
2022/02/28 09:02:25;;;;;;;14.00;8.93;;;;;;;0.88;59.67;96816.78;4937213;29;20213;-78
2022/02/28 09:04:50;;;;;;;16.27;9.23;;;;;;;0.94;60.47;96824.22;4937229;29;20239;-78
2022/02/28 09:07:15;;;;;;;15.27;9.57;;;;;;;1.04;60.70;96822.16;4935926;29;20265;-79
2022/02/28 09:09:41;;;;;;;17.27;9.47;;;;;;;1.11;59.67;96828.72;4936410;29;20220;-78
2022/02/28 09:12:06;;;;;;;12.73;8.93;;;;;;;1.17;59.62;96822.53;4924667;29;20218;-78
2022/02/28 09:14:32;;;;;;;14.17;8.80;;;;;;;1.27;59.17;96823.84;4901637;29;20293;-78
2022/02/28 09:16:57;;;;;;;12.27;8.63;;;;;;;1.32;59.13;96822.75;4928068;29;20241;-78
2022/02/28 09:19:22;;;;;;;16.40;10.27;;;;;;;1.41;59.77;96817.28;4935144;29;20196;-77
2022/02/28 09:21:49;;;;;;;11.37;9.03;;;;;;;1.54;59.37;96811.66;4934788;29;20217;-79
2022/02/28 09:24:15;;;;;;;14.83;9.17;;;;;;;1.57;59.06;96814.09;4921783;29;20224;-78
2022/02/28 09:26:42;;;;;;;13.57;9.13;;;;;;;1.56;58.55;96820.13;4920969;29;20265;-78
2022/02/28 09:29:07;;;;;;;16.33;9.53;;;;;;;1.69;58.97;96816.19;4936815;29;20554;-78
2022/02/28 09:31:33;;;;;;;11.97;8.53;;;;;;;1.80;57.69;96810.59;4921704;29;20184;-78
2022/02/28 09:33:58;;;;;;;13.83;8.90;;;;;;;1.88;57.82;96817.06;4952741;29;20184;-79
2022/02/28 09:36:23;;;;;;;12.23;8.60;;;;;;;1.95;58.09;96818.50;4951911;29;20256;-78
2022/02/28 09:38:49;;;;;;;17.80;10.13;;;;;;;2.02;58.27;96821.59;4937518;29;20208;-79
2022/02/28 09:41:17;;;;;;;14.70;9.23;;;;;;;2.12;58.02;96819.50;4920766;29;20201;-82
2022/02/28 09:43:43;;;;;;;14.00;9.03;;;;;;;2.26;56.71;96824.88;4928109;29;20209;-76
2022/02/28 09:46:08;;;;;;;16.10;8.63;;;;;;;2.11;57.05;96825.50;4954179;28;20546;-78
2022/02/28 09:48:34;;;;;;;13.27;9.27;;;;;;;2.27;57.55;96840.19;4957632;28;20192;-77
2022/02/28 09:51:00;;;;;;;12.93;9.00;;;;;;;2.32;57.37;96837.44;4959078;28;20358;-79
2022/02/28 09:53:25;;;;;;;12.23;8.63;;;;;;;2.26;56.18;96832.56;4957176;28;20255;-78
2022/02/28 09:55:50;;;;;;;15.20;9.17;;;;;;;2.43;56.27;96834.41;4941862;28;20195;-78
2022/02/28 09:58:16;;;;;;;14.10;8.40;;;;;;;2.67;55.87;96842.75;4939357;29;20189;-78
2022/02/28 10:00:43;;;;;;;14.97;9.30;;;;;;;2.69;55.35;96836.66;4955530;29;20216;-78
2022/02/28 10:03:09;;;;;;;14.60;8.87;;;;;;;2.72;55.32;96830.53;4943103;29;20577;-78
2022/02/28 10:05:34;;;;;;;11.30;8.73;;;;;;;2.76;55.77;96835.47;4922440;28;20192;-78
2022/02/28 10:08:06;;;;;;;13.90;9.17;;;;;;;2.71;54.91;96832.28;4971416;28;20184;-78
2022/02/28 10:10:34;;;;;;;15.00;9.60;;;;;;;2.84;54.11;96838.53;4970575;28;20187;-78
2022/02/28 10:13:00;;;;;;;13.93;8.60;;;;;;;2.96;53.91;96837.16;4973255;28;20264;-78
2022/02/28 10:15:25;;;;;;;12.90;9.00;;;;;;;3.05;55.03;96839.28;4957713;28;20184;-78
2022/02/28 10:17:56;;;;;;;11.87;8.13;;;;;;;3.18;53.77;96838.72;4938519;28;20241;-78
2022/02/28 10:20:29;;;;;;;14.20;8.87;;;;;;;3.24;52.72;96841.00;4938696;29;20729;-78
2022/02/28 10:22:58;;;;;;;11.20;8.07;;;;;;;3.21;52.65;96829.16;4949204;28;20192;-79
2022/02/28 10:25:32;;;;;;;10.53;7.47;;;;;;;3.37;52.46;96826.72;4943181;28;20310;-78
2022/02/28 10:28:09;;;;;;;10.87;7.97;;;;;;;3.48;52.51;96829.59;4971744;28;20189;-77
2022/02/28 10:30:35;;;;;;;13.03;7.83;;;;;;;3.49;51.36;96830.41;4974595;28;20234;-78
2022/02/28 10:33:11;;;;;;;12.67;8.30;;;;;;;3.39;51.75;96832.59;4977768;28;20212;-78
2022/02/28 10:38:26;;;;;;;12.10;8.20;;;;;;;3.45;51.44;96828.91;4981389;28;20360;-78
2022/02/28 10:40:53;;;;;;;9.80;7.67;;;;;;;3.51;50.94;96824.28;4957955;28;20307;-78
2022/02/28 10:43:30;;;;;;;11.73;7.70;;;;;;;3.69;51.05;96828.53;4930918;29;20304;-80
2022/02/28 10:45:58;;;;;;;12.63;7.60;;;;;;;3.67;50.30;96826.97;4938799;29;20220;-80
2022/02/28 10:48:24;;;;;;;8.40;6.40;;;;;;;3.72;49.17;96832.72;4950562;28;20610;-79
2022/02/28 10:50:50;;;;;;;10.77;7.00;;;;;;;3.73;48.66;96816.41;4957868;28;20185;-77
2022/02/28 10:53:21;;;;;;;8.17;6.43;;;;;;;3.90;49.00;96829.25;4937665;29;20201;-78
2022/02/28 10:55:48;;;;;;;7.87;6.40;;;;;;;3.96;47.39;96815.25;4955835;29;20182;-77
2022/02/28 10:58:16;;;;;;;12.97;6.30;;;;;;;4.04;46.69;96823.41;4956651;28;20184;-80
2022/02/28 11:00:57;;;;;;;7.93;5.83;;;;;;;3.97;45.60;96820.31;4942647;28;20195;-79
2022/02/28 11:03:28;;;;;;;7.87;6.63;;;;;;;3.94;45.69;96812.75;4959273;28;20207;-79
2022/02/28 11:05:54;;;;;;;9.83;6.70;;;;;;;3.98;46.30;96805.75;4962492;28;20185;-79
2022/02/28 11:08:21;;;;;;;9.40;5.90;;;;;;;3.99;46.50;96804.84;4962592;28;20177;-80
2022/02/28 11:10:48;;;;;;;10.23;6.93;;;;;;;4.17;46.25;96814.19;4963439;28;20592;-80
2022/02/28 11:13:14;;;;;;;9.70;6.47;;;;;;;4.23;46.57;96805.31;4946012;28;20340;-80
2022/02/28 11:15:39;;;;;;;11.33;7.13;;;;;;;4.29;45.90;96809.31;4963470;28;20204;-79
2022/02/28 11:18:04;;;;;;;10.50;6.73;;;;;;;4.26;46.76;96815.47;4948158;28;20660;-79
2022/02/28 11:20:30;;;;;;;9.37;6.40;;;;;;;4.24;44.14;96818.13;4963600;28;20188;-80
2022/02/28 11:22:56;;;;;;;10.30;6.37;;;;;;;4.37;45.58;96812.34;4941872;29;20204;-79